sensor_id;sensor_type;location;lat;lon;timestamp;P1;durP1;ratioP1;P2;durP2;ratioP2
2107;SDS011;1060;52.492;13.388;2023-05-07T00:02:22;19.10;;;17.40;;
2107;SDS011;1060;52.492;13.388;2023-05-07T00:04:49;19.73;;;17.97;;
2107;SDS011;1060;52.492;13.388;2023-05-07T00:07:17;19.80;;;18.10;;
2107;SDS011;1060;52.492;13.388;2023-05-07T00:09:44;19.07;;;17.27;;
2107;SDS011;1060;52.492;13.388;2023-05-07T00:12:10;20.27;;;18.47;;
2107;SDS011;1060;52.492;13.388;2023-05-07T00:14:42;19.10;;;17.07;;
2107;SDS011;1060;52.492;13.388;2023-05-07T00:17:10;18.03;;;16.50;;
2107;SDS011;1060;52.492;13.388;2023-05-07T00:19:37;16.90;;;15.30;;
2107;SDS011;1060;52.492;13.388;2023-05-07T00:22:03;18.23;;;16.53;;
2107;SDS011;1060;52.492;13.388;2023-05-07T00:24:29;17.27;;;15.67;;
2107;SDS011;1060;52.492;13.388;2023-05-07T00:27:06;20.67;;;16.60;;
2107;SDS011;1060;52.492;13.388;2023-05-07T00:29:33;16.83;;;15.43;;
2107;SDS011;1060;52.492;13.388;2023-05-07T00:31:59;16.37;;;14.73;;
2107;SDS011;1060;52.492;13.388;2023-05-07T00:34:28;16.77;;;14.80;;
2107;SDS011;1060;52.492;13.388;2023-05-07T00:36:54;15.50;;;14.10;;
2107;SDS011;1060;52.492;13.388;2023-05-07T00:39:22;17.60;;;16.00;;
2107;SDS011;1060;52.492;13.388;2023-05-07T00:41:50;15.93;;;14.53;;
2107;SDS011;1060;52.492;13.388;2023-05-07T00:44:19;16.13;;;14.43;;
2107;SDS011;1060;52.492;13.388;2023-05-07T00:46:49;16.00;;;14.50;;
2107;SDS011;1060;52.492;13.388;2023-05-07T00:49:21;15.03;;;13.73;;
2107;SDS011;1060;52.492;13.388;2023-05-07T00:51:47;15.40;;;14.07;;
2107;SDS011;1060;52.492;13.388;2023-05-07T00:54:13;17.40;;;15.57;;
2107;SDS011;1060;52.492;13.388;2023-05-07T00:56:40;15.57;;;14.20;;
2107;SDS011;1060;52.492;13.388;2023-05-07T00:59:09;16.43;;;15.03;;
2107;SDS011;1060;52.492;13.388;2023-05-07T01:01:36;16.50;;;15.00;;
2107;SDS011;1060;52.492;13.388;2023-05-07T01:04:07;18.13;;;16.80;;
2107;SDS011;1060;52.492;13.388;2023-05-07T01:06:43;18.40;;;16.80;;
2107;SDS011;1060;52.492;13.388;2023-05-07T01:09:10;18.73;;;16.70;;
2107;SDS011;1060;52.492;13.388;2023-05-07T01:11:40;16.80;;;15.40;;
2107;SDS011;1060;52.492;13.388;2023-05-07T01:14:11;20.60;;;18.90;;
2107;SDS011;1060;52.492;13.388;2023-05-07T01:16:37;17.00;;;15.50;;
2107;SDS011;1060;52.492;13.388;2023-05-07T01:19:09;15.17;;;13.87;;
2107;SDS011;1060;52.492;13.388;2023-05-07T01:21:39;15.67;;;14.27;;
2107;SDS011;1060;52.492;13.388;2023-05-07T01:24:11;16.57;;;15.10;;
2107;SDS011;1060;52.492;13.388;2023-05-07T01:26:38;17.00;;;15.60;;
2107;SDS011;1060;52.492;13.388;2023-05-07T01:29:05;15.93;;;14.43;;
2107;SDS011;1060;52.492;13.388;2023-05-07T01:31:34;15.43;;;14.03;;
2107;SDS011;1060;52.492;13.388;2023-05-07T01:34:01;17.00;;;15.37;;
2107;SDS011;1060;52.492;13.388;2023-05-07T01:36:27;18.10;;;16.37;;
2107;SDS011;1060;52.492;13.388;2023-05-07T01:38:57;17.70;;;16.00;;
2107;SDS011;1060;52.492;13.388;2023-05-07T01:41:26;14.83;;;13.70;;
2107;SDS011;1060;52.492;13.388;2023-05-07T01:43:53;15.10;;;13.50;;
2107;SDS011;1060;52.492;13.388;2023-05-07T01:46:20;15.67;;;14.07;;
2107;SDS011;1060;52.492;13.388;2023-05-07T01:48:47;17.63;;;14.27;;
2107;SDS011;1060;52.492;13.388;2023-05-07T01:51:13;14.17;;;13.07;;
2107;SDS011;1060;52.492;13.388;2023-05-07T01:53:40;14.97;;;13.53;;
2107;SDS011;1060;52.492;13.388;2023-05-07T01:56:07;15.73;;;14.53;;
2107;SDS011;1060;52.492;13.388;2023-05-07T01:58:39;16.57;;;15.00;;
2107;SDS011;1060;52.492;13.388;2023-05-07T02:01:08;15.50;;;14.20;;
2107;SDS011;1060;52.492;13.388;2023-05-07T02:03:35;13.97;;;12.77;;
2107;SDS011;1060;52.492;13.388;2023-05-07T02:06:18;14.47;;;13.17;;
2107;SDS011;1060;52.492;13.388;2023-05-07T02:08:48;15.10;;;13.80;;
2107;SDS011;1060;52.492;13.388;2023-05-07T02:11:15;15.40;;;13.87;;
2107;SDS011;1060;52.492;13.388;2023-05-07T02:13:41;13.63;;;12.47;;
2107;SDS011;1060;52.492;13.388;2023-05-07T02:16:17;15.63;;;13.90;;
2107;SDS011;1060;52.492;13.388;2023-05-07T02:18:47;16.43;;;14.87;;
2107;SDS011;1060;52.492;13.388;2023-05-07T02:21:21;14.97;;;13.73;;
2107;SDS011;1060;52.492;13.388;2023-05-07T02:23:47;16.03;;;14.73;;
2107;SDS011;1060;52.492;13.388;2023-05-07T02:26:13;18.00;;;16.20;;
2107;SDS011;1060;52.492;13.388;2023-05-07T02:28:40;16.80;;;15.00;;
2107;SDS011;1060;52.492;13.388;2023-05-07T02:31:06;14.67;;;13.33;;
2107;SDS011;1060;52.492;13.388;2023-05-07T02:33:33;15.73;;;14.53;;
2107;SDS011;1060;52.492;13.388;2023-05-07T02:36:07;17.30;;;15.50;;
2107;SDS011;1060;52.492;13.388;2023-05-07T02:38:51;18.63;;;15.33;;
2107;SDS011;1060;52.492;13.388;2023-05-07T02:41:27;16.83;;;15.23;;
2107;SDS011;1060;52.492;13.388;2023-05-07T02:43:56;15.47;;;14.00;;
2107;SDS011;1060;52.492;13.388;2023-05-07T02:46:43;15.93;;;14.27;;
2107;SDS011;1060;52.492;13.388;2023-05-07T02:49:15;15.47;;;13.97;;
2107;SDS011;1060;52.492;13.388;2023-05-07T02:52:08;17.73;;;15.83;;
2107;SDS011;1060;52.492;13.388;2023-05-07T02:54:39;15.80;;;14.47;;
2107;SDS011;1060;52.492;13.388;2023-05-07T02:57:20;17.23;;;15.53;;
2107;SDS011;1060;52.492;13.388;2023-05-07T02:59:48;16.30;;;14.70;;
2107;SDS011;1060;52.492;13.388;2023-05-07T03:02:18;16.40;;;14.20;;
2107;SDS011;1060;52.492;13.388;2023-05-07T03:04:48;16.00;;;14.67;;
2107;SDS011;1060;52.492;13.388;2023-05-07T03:07:16;15.53;;;14.13;;
2107;SDS011;1060;52.492;13.388;2023-05-07T03:09:42;13.83;;;12.40;;
2107;SDS011;1060;52.492;13.388;2023-05-07T03:12:08;13.80;;;12.40;;
2107;SDS011;1060;52.492;13.388;2023-05-07T03:14:35;14.73;;;13.33;;
2107;SDS011;1060;52.492;13.388;2023-05-07T03:17:01;16.63;;;15.33;;
2107;SDS011;1060;52.492;13.388;2023-05-07T03:19:27;15.07;;;13.57;;
2107;SDS011;1060;52.492;13.388;2023-05-07T03:21:56;15.63;;;14.30;;
2107;SDS011;1060;52.492;13.388;2023-05-07T03:24:22;15.67;;;11.87;;
2107;SDS011;1060;52.492;13.388;2023-05-07T03:26:51;13.13;;;12.03;;
2107;SDS011;1060;52.492;13.388;2023-05-07T03:29:17;15.80;;;12.57;;
2107;SDS011;1060;52.492;13.388;2023-05-07T03:31:45;14.00;;;12.67;;
2107;SDS011;1060;52.492;13.388;2023-05-07T03:34:12;14.10;;;13.00;;
2107;SDS011;1060;52.492;13.388;2023-05-07T03:36:38;14.23;;;12.90;;
2107;SDS011;1060;52.492;13.388;2023-05-07T03:49:58;14.73;;;13.17;;
2107;SDS011;1060;52.492;13.388;2023-05-07T03:52:27;16.90;;;15.10;;
2107;SDS011;1060;52.492;13.388;2023-05-07T03:54:57;14.40;;;13.10;;
2107;SDS011;1060;52.492;13.388;2023-05-07T03:57:24;17.50;;;16.00;;
2107;SDS011;1060;52.492;13.388;2023-05-07T03:59:51;16.80;;;15.30;;
2107;SDS011;1060;52.492;13.388;2023-05-07T04:02:17;15.97;;;14.67;;
2107;SDS011;1060;52.492;13.388;2023-05-07T04:04:48;16.53;;;15.03;;
2107;SDS011;1060;52.492;13.388;2023-05-07T04:07:14;15.30;;;13.97;;
2107;SDS011;1060;52.492;13.388;2023-05-07T04:09:48;15.53;;;14.07;;
2107;SDS011;1060;52.492;13.388;2023-05-07T04:12:14;16.00;;;14.53;;
2107;SDS011;1060;52.492;13.388;2023-05-07T04:14:41;13.43;;;12.43;;
2107;SDS011;1060;52.492;13.388;2023-05-07T04:17:07;13.67;;;12.67;;
2107;SDS011;1060;52.492;13.388;2023-05-07T04:19:37;14.87;;;13.60;;
2107;SDS011;1060;52.492;13.388;2023-05-07T04:22:03;13.87;;;12.00;;
2107;SDS011;1060;52.492;13.388;2023-05-07T04:24:33;12.43;;;11.40;;
2107;SDS011;1060;52.492;13.388;2023-05-07T04:27:00;13.63;;;12.53;;
2107;SDS011;1060;52.492;13.388;2023-05-07T04:29:26;13.83;;;12.50;;
2107;SDS011;1060;52.492;13.388;2023-05-07T04:31:58;13.40;;;12.30;;
2107;SDS011;1060;52.492;13.388;2023-05-07T04:34:53;13.90;;;12.60;;
2107;SDS011;1060;52.492;13.388;2023-05-07T04:37:19;14.27;;;12.77;;
2107;SDS011;1060;52.492;13.388;2023-05-07T04:39:46;13.37;;;12.17;;
2107;SDS011;1060;52.492;13.388;2023-05-07T04:42:16;12.53;;;11.20;;
2107;SDS011;1060;52.492;13.388;2023-05-07T04:44:52;14.07;;;13.00;;
2107;SDS011;1060;52.492;13.388;2023-05-07T04:47:18;11.37;;;10.27;;
2107;SDS011;1060;52.492;13.388;2023-05-07T04:49:46;12.60;;;11.43;;
2107;SDS011;1060;52.492;13.388;2023-05-07T04:52:12;11.87;;;10.93;;
2107;SDS011;1060;52.492;13.388;2023-05-07T04:54:38;12.60;;;11.47;;
2107;SDS011;1060;52.492;13.388;2023-05-07T04:57:06;11.40;;;10.30;;
2107;SDS011;1060;52.492;13.388;2023-05-07T04:59:35;11.93;;;10.93;;
2107;SDS011;1060;52.492;13.388;2023-05-07T05:02:01;12.27;;;11.07;;
2107;SDS011;1060;52.492;13.388;2023-05-07T05:04:29;11.63;;;10.63;;
2107;SDS011;1060;52.492;13.388;2023-05-07T05:06:56;9.77;;;9.10;;
2107;SDS011;1060;52.492;13.388;2023-05-07T05:09:22;10.97;;;9.97;;
2107;SDS011;1060;52.492;13.388;2023-05-07T05:11:48;9.20;;;8.43;;
2107;SDS011;1060;52.492;13.388;2023-05-07T05:14:14;11.33;;;10.33;;
2107;SDS011;1060;52.492;13.388;2023-05-07T05:16:40;10.57;;;9.50;;
2107;SDS011;1060;52.492;13.388;2023-05-07T05:19:07;8.07;;;7.37;;
2107;SDS011;1060;52.492;13.388;2023-05-07T05:21:37;10.17;;;9.37;;
2107;SDS011;1060;52.492;13.388;2023-05-07T05:24:06;9.23;;;8.47;;
2107;SDS011;1060;52.492;13.388;2023-05-07T05:26:33;9.50;;;8.73;;
2107;SDS011;1060;52.492;13.388;2023-05-07T05:28:59;8.80;;;8.10;;
2107;SDS011;1060;52.492;13.388;2023-05-07T05:31:28;9.63;;;8.83;;
2107;SDS011;1060;52.492;13.388;2023-05-07T05:33:54;9.53;;;8.73;;
2107;SDS011;1060;52.492;13.388;2023-05-07T05:36:20;8.57;;;7.67;;
2107;SDS011;1060;52.492;13.388;2023-05-07T05:38:48;9.17;;;8.47;;
2107;SDS011;1060;52.492;13.388;2023-05-07T05:41:15;9.33;;;8.53;;
2107;SDS011;1060;52.492;13.388;2023-05-07T05:43:41;9.50;;;8.70;;
2107;SDS011;1060;52.492;13.388;2023-05-07T05:46:09;9.10;;;8.23;;
2107;SDS011;1060;52.492;13.388;2023-05-07T05:48:37;10.30;;;9.40;;
2107;SDS011;1060;52.492;13.388;2023-05-07T05:51:04;11.33;;;10.33;;
2107;SDS011;1060;52.492;13.388;2023-05-07T05:53:31;9.97;;;9.03;;
2107;SDS011;1060;52.492;13.388;2023-05-07T05:55:57;12.07;;;10.70;;
2107;SDS011;1060;52.492;13.388;2023-05-07T05:58:23;9.70;;;8.80;;
2107;SDS011;1060;52.492;13.388;2023-05-07T06:00:55;7.70;;;7.00;;
2107;SDS011;1060;52.492;13.388;2023-05-07T06:03:24;8.70;;;7.90;;
2107;SDS011;1060;52.492;13.388;2023-05-07T06:05:51;9.50;;;8.60;;
2107;SDS011;1060;52.492;13.388;2023-05-07T06:08:20;11.23;;;9.37;;
2107;SDS011;1060;52.492;13.388;2023-05-07T06:10:46;9.23;;;8.53;;
2107;SDS011;1060;52.492;13.388;2023-05-07T06:13:13;9.90;;;9.00;;
2107;SDS011;1060;52.492;13.388;2023-05-07T06:15:40;9.40;;;8.60;;
2107;SDS011;1060;52.492;13.388;2023-05-07T06:18:09;9.80;;;8.80;;
2107;SDS011;1060;52.492;13.388;2023-05-07T06:20:35;8.07;;;7.33;;
2107;SDS011;1060;52.492;13.388;2023-05-07T06:23:04;9.10;;;8.30;;
2107;SDS011;1060;52.492;13.388;2023-05-07T06:25:32;10.03;;;9.00;;
2107;SDS011;1060;52.492;13.388;2023-05-07T06:28:04;9.10;;;8.40;;
2107;SDS011;1060;52.492;13.388;2023-05-07T06:30:32;9.43;;;8.73;;
2107;SDS011;1060;52.492;13.388;2023-05-07T06:33:05;8.87;;;8.17;;
2107;SDS011;1060;52.492;13.388;2023-05-07T06:35:32;9.33;;;8.57;;
2107;SDS011;1060;52.492;13.388;2023-05-07T06:37:59;9.90;;;9.17;;
2107;SDS011;1060;52.492;13.388;2023-05-07T06:40:29;9.40;;;8.60;;
2107;SDS011;1060;52.492;13.388;2023-05-07T06:42:58;8.87;;;8.10;;
2107;SDS011;1060;52.492;13.388;2023-05-07T06:45:47;9.60;;;8.80;;
2107;SDS011;1060;52.492;13.388;2023-05-07T06:48:16;8.97;;;8.17;;
2107;SDS011;1060;52.492;13.388;2023-05-07T06:50:53;11.93;;;9.70;;
2107;SDS011;1060;52.492;13.388;2023-05-07T06:53:24;9.90;;;8.90;;
2107;SDS011;1060;52.492;13.388;2023-05-07T06:56:10;8.37;;;7.77;;
2107;SDS011;1060;52.492;13.388;2023-05-07T06:58:42;7.90;;;7.20;;
2107;SDS011;1060;52.492;13.388;2023-05-07T07:01:09;8.60;;;7.77;;
2107;SDS011;1060;52.492;13.388;2023-05-07T07:03:39;9.97;;;9.17;;
2107;SDS011;1060;52.492;13.388;2023-05-07T07:06:05;10.03;;;9.20;;
2107;SDS011;1060;52.492;13.388;2023-05-07T07:08:32;11.83;;;10.33;;
2107;SDS011;1060;52.492;13.388;2023-05-07T07:10:59;8.00;;;7.40;;
2107;SDS011;1060;52.492;13.388;2023-05-07T07:13:38;10.80;;;10.00;;
2107;SDS011;1060;52.492;13.388;2023-05-07T07:16:12;8.97;;;8.37;;
2107;SDS011;1060;52.492;13.388;2023-05-07T07:18:47;7.30;;;6.80;;
2107;SDS011;1060;52.492;13.388;2023-05-07T07:21:23;7.27;;;6.67;;
2107;SDS011;1060;52.492;13.388;2023-05-07T07:23:51;7.00;;;6.47;;
2107;SDS011;1060;52.492;13.388;2023-05-07T07:26:20;7.67;;;7.17;;
2107;SDS011;1060;52.492;13.388;2023-05-07T07:28:47;6.17;;;5.67;;
2107;SDS011;1060;52.492;13.388;2023-05-07T07:31:17;7.50;;;6.90;;
2107;SDS011;1060;52.492;13.388;2023-05-07T07:33:48;9.03;;;8.13;;
2107;SDS011;1060;52.492;13.388;2023-05-07T07:36:18;8.50;;;7.70;;
2107;SDS011;1060;52.492;13.388;2023-05-07T07:38:45;8.23;;;7.63;;
2107;SDS011;1060;52.492;13.388;2023-05-07T07:41:18;7.83;;;7.10;;
2107;SDS011;1060;52.492;13.388;2023-05-07T07:43:46;6.93;;;6.03;;
2107;SDS011;1060;52.492;13.388;2023-05-07T07:46:20;6.63;;;6.00;;
2107;SDS011;1060;52.492;13.388;2023-05-07T07:48:52;6.90;;;6.37;;
2107;SDS011;1060;52.492;13.388;2023-05-07T07:51:33;6.57;;;6.13;;
2107;SDS011;1060;52.492;13.388;2023-05-07T07:54:00;6.80;;;6.20;;
2107;SDS011;1060;52.492;13.388;2023-05-07T07:56:34;6.67;;;5.90;;
2107;SDS011;1060;52.492;13.388;2023-05-07T07:59:03;6.07;;;5.57;;
2107;SDS011;1060;52.492;13.388;2023-05-07T08:01:32;5.97;;;5.43;;
2107;SDS011;1060;52.492;13.388;2023-05-07T08:04:11;6.70;;;6.00;;
2107;SDS011;1060;52.492;13.388;2023-05-07T08:06:43;5.50;;;5.00;;
2107;SDS011;1060;52.492;13.388;2023-05-07T08:09:10;5.83;;;5.33;;
2107;SDS011;1060;52.492;13.388;2023-05-07T08:11:39;6.20;;;4.70;;
2107;SDS011;1060;52.492;13.388;2023-05-07T08:14:08;5.87;;;5.33;;
2107;SDS011;1060;52.492;13.388;2023-05-07T08:17:07;6.53;;;5.93;;
2107;SDS011;1060;52.492;13.388;2023-05-07T08:19:44;6.30;;;5.70;;
2107;SDS011;1060;52.492;13.388;2023-05-07T08:22:12;5.90;;;4.80;;
2107;SDS011;1060;52.492;13.388;2023-05-07T08:24:43;5.63;;;5.33;;
2107;SDS011;1060;52.492;13.388;2023-05-07T08:27:11;5.10;;;4.70;;
2107;SDS011;1060;52.492;13.388;2023-05-07T08:29:41;5.73;;;5.23;;
2107;SDS011;1060;52.492;13.388;2023-05-07T08:32:11;5.27;;;4.80;;
2107;SDS011;1060;52.492;13.388;2023-05-07T08:34:50;5.90;;;5.50;;
2107;SDS011;1060;52.492;13.388;2023-05-07T08:37:20;4.83;;;4.43;;
2107;SDS011;1060;52.492;13.388;2023-05-07T08:39:50;6.10;;;5.57;;
2107;SDS011;1060;52.492;13.388;2023-05-07T08:42:20;4.77;;;4.30;;
2107;SDS011;1060;52.492;13.388;2023-05-07T08:44:47;5.63;;;5.00;;
2107;SDS011;1060;52.492;13.388;2023-05-07T08:53:09;5.87;;;5.33;;
2107;SDS011;1060;52.492;13.388;2023-05-07T08:55:46;6.30;;;5.03;;
2107;SDS011;1060;52.492;13.388;2023-05-07T08:58:31;4.23;;;3.93;;
2107;SDS011;1060;52.492;13.388;2023-05-07T09:01:29;4.50;;;3.93;;
2107;SDS011;1060;52.492;13.388;2023-05-07T09:15:28;4.10;;;3.80;;
2107;SDS011;1060;52.492;13.388;2023-05-07T09:18:13;4.33;;;3.87;;
2107;SDS011;1060;52.492;13.388;2023-05-07T09:21:09;5.47;;;4.97;;
2107;SDS011;1060;52.492;13.388;2023-05-07T09:23:53;4.87;;;4.47;;
2107;SDS011;1060;52.492;13.388;2023-05-07T09:26:32;3.90;;;3.60;;
2107;SDS011;1060;52.492;13.388;2023-05-07T09:38:42;4.27;;;3.87;;
2107;SDS011;1060;52.492;13.388;2023-05-07T10:17:01;3.07;;;2.87;;
2107;SDS011;1060;52.492;13.388;2023-05-07T10:22:14;2.63;;;2.43;;
2107;SDS011;1060;52.492;13.388;2023-05-07T10:24:51;3.13;;;2.93;;
2107;SDS011;1060;52.492;13.388;2023-05-07T10:28:08;9.00;;;2.87;;
2107;SDS011;1060;52.492;13.388;2023-05-07T10:31:32;2.47;;;2.27;;
2107;SDS011;1060;52.492;13.388;2023-05-07T10:34:29;3.40;;;2.40;;
2107;SDS011;1060;52.492;13.388;2023-05-07T10:37:34;2.77;;;2.00;;
2107;SDS011;1060;52.492;13.388;2023-05-07T10:40:51;1.90;;;1.80;;
2107;SDS011;1060;52.492;13.388;2023-05-07T10:43:55;2.80;;;2.33;;
2107;SDS011;1060;52.492;13.388;2023-05-07T10:46:48;2.33;;;2.23;;
2107;SDS011;1060;52.492;13.388;2023-05-07T11:02:06;5.20;;;4.80;;
2107;SDS011;1060;52.492;13.388;2023-05-07T11:17:09;2.57;;;2.37;;
2107;SDS011;1060;52.492;13.388;2023-05-07T11:19:52;3.17;;;2.90;;
2107;SDS011;1060;52.492;13.388;2023-05-07T11:22:36;3.00;;;2.80;;
2107;SDS011;1060;52.492;13.388;2023-05-07T11:25:24;3.20;;;2.90;;
2107;SDS011;1060;52.492;13.388;2023-05-07T11:28:07;3.93;;;2.03;;
2107;SDS011;1060;52.492;13.388;2023-05-07T11:30:42;2.23;;;2.10;;
2107;SDS011;1060;52.492;13.388;2023-05-07T11:33:12;2.87;;;2.60;;
2107;SDS011;1060;52.492;13.388;2023-05-07T11:35:40;3.40;;;3.10;;
2107;SDS011;1060;52.492;13.388;2023-05-07T11:38:13;2.77;;;1.97;;
2107;SDS011;1060;52.492;13.388;2023-05-07T11:40:50;4.93;;;2.50;;
2107;SDS011;1060;52.492;13.388;2023-05-07T11:43:16;3.07;;;2.50;;
2107;SDS011;1060;52.492;13.388;2023-05-07T11:45:45;2.60;;;2.40;;
2107;SDS011;1060;52.492;13.388;2023-05-07T11:48:12;3.60;;;3.30;;
2107;SDS011;1060;52.492;13.388;2023-05-07T11:50:59;4.40;;;3.13;;
2107;SDS011;1060;52.492;13.388;2023-05-07T11:53:33;2.77;;;2.57;;
2107;SDS011;1060;52.492;13.388;2023-05-07T11:56:05;2.33;;;2.13;;
2107;SDS011;1060;52.492;13.388;2023-05-07T11:58:45;4.57;;;2.40;;
2107;SDS011;1060;52.492;13.388;2023-05-07T12:01:55;2.20;;;1.90;;
2107;SDS011;1060;52.492;13.388;2023-05-07T12:04:22;2.17;;;2.07;;
2107;SDS011;1060;52.492;13.388;2023-05-07T12:06:53;2.57;;;2.37;;
2107;SDS011;1060;52.492;13.388;2023-05-07T12:09:20;2.00;;;1.80;;
2107;SDS011;1060;52.492;13.388;2023-05-07T12:11:47;4.73;;;2.03;;
2107;SDS011;1060;52.492;13.388;2023-05-07T12:14:13;2.20;;;2.00;;
2107;SDS011;1060;52.492;13.388;2023-05-07T12:16:41;3.47;;;2.60;;
2107;SDS011;1060;52.492;13.388;2023-05-07T12:19:07;2.30;;;2.10;;
2107;SDS011;1060;52.492;13.388;2023-05-07T12:21:37;2.67;;;2.47;;
2107;SDS011;1060;52.492;13.388;2023-05-07T12:24:09;4.00;;;2.10;;
2107;SDS011;1060;52.492;13.388;2023-05-07T12:26:39;2.20;;;2.10;;
2107;SDS011;1060;52.492;13.388;2023-05-07T12:29:06;2.30;;;2.10;;
2107;SDS011;1060;52.492;13.388;2023-05-07T12:31:32;2.37;;;2.17;;
2107;SDS011;1060;52.492;13.388;2023-05-07T12:33:58;3.80;;;2.37;;
2107;SDS011;1060;52.492;13.388;2023-05-07T12:36:24;2.13;;;1.93;;
2107;SDS011;1060;52.492;13.388;2023-05-07T12:38:52;4.40;;;2.67;;
2107;SDS011;1060;52.492;13.388;2023-05-07T12:41:20;1.93;;;1.83;;
2107;SDS011;1060;52.492;13.388;2023-05-07T12:43:56;3.03;;;2.43;;
2107;SDS011;1060;52.492;13.388;2023-05-07T12:46:22;3.17;;;2.87;;
2107;SDS011;1060;52.492;13.388;2023-05-07T12:48:48;3.00;;;2.37;;
2107;SDS011;1060;52.492;13.388;2023-05-07T12:51:15;2.53;;;2.30;;
2107;SDS011;1060;52.492;13.388;2023-05-07T12:53:42;4.90;;;4.47;;
2107;SDS011;1060;52.492;13.388;2023-05-07T12:56:09;2.87;;;2.63;;
2107;SDS011;1060;52.492;13.388;2023-05-07T12:58:35;3.10;;;2.90;;
2107;SDS011;1060;52.492;13.388;2023-05-07T13:01:06;4.23;;;3.80;;
2107;SDS011;1060;52.492;13.388;2023-05-07T13:03:36;2.53;;;2.33;;
2107;SDS011;1060;52.492;13.388;2023-05-07T13:06:04;2.23;;;2.00;;
2107;SDS011;1060;52.492;13.388;2023-05-07T13:08:33;3.60;;;1.87;;
2107;SDS011;1060;52.492;13.388;2023-05-07T13:11:06;2.17;;;1.57;;
2107;SDS011;1060;52.492;13.388;2023-05-07T13:13:34;2.83;;;2.53;;
2107;SDS011;1060;52.492;13.388;2023-05-07T13:16:04;3.90;;;2.17;;
2107;SDS011;1060;52.492;13.388;2023-05-07T13:18:40;3.37;;;2.20;;
2107;SDS011;1060;52.492;13.388;2023-05-07T13:21:10;2.57;;;2.37;;
2107;SDS011;1060;52.492;13.388;2023-05-07T13:23:50;1.80;;;1.50;;
2107;SDS011;1060;52.492;13.388;2023-05-07T13:26:17;2.33;;;1.70;;
2107;SDS011;1060;52.492;13.388;2023-05-07T13:28:43;2.20;;;2.00;;
2107;SDS011;1060;52.492;13.388;2023-05-07T13:31:09;2.43;;;1.77;;
2107;SDS011;1060;52.492;13.388;2023-05-07T13:33:36;3.37;;;3.07;;
2107;SDS011;1060;52.492;13.388;2023-05-07T13:36:04;2.87;;;2.67;;
2107;SDS011;1060;52.492;13.388;2023-05-07T13:38:31;2.53;;;2.20;;
2107;SDS011;1060;52.492;13.388;2023-05-07T13:40:57;2.23;;;2.03;;
2107;SDS011;1060;52.492;13.388;2023-05-07T13:43:45;2.00;;;1.90;;
2107;SDS011;1060;52.492;13.388;2023-05-07T13:46:16;2.13;;;1.80;;
2107;SDS011;1060;52.492;13.388;2023-05-07T13:48:48;2.63;;;2.30;;
2107;SDS011;1060;52.492;13.388;2023-05-07T13:51:27;2.73;;;2.50;;
2107;SDS011;1060;52.492;13.388;2023-05-07T13:53:57;2.30;;;1.83;;
2107;SDS011;1060;52.492;13.388;2023-05-07T13:56:44;2.60;;;2.00;;
2107;SDS011;1060;52.492;13.388;2023-05-07T13:59:21;2.40;;;2.20;;
2107;SDS011;1060;52.492;13.388;2023-05-07T14:01:59;2.33;;;2.10;;
2107;SDS011;1060;52.492;13.388;2023-05-07T14:04:37;3.23;;;1.60;;
2107;SDS011;1060;52.492;13.388;2023-05-07T14:07:28;1.83;;;1.67;;
2107;SDS011;1060;52.492;13.388;2023-05-07T14:10:08;1.93;;;1.63;;
2107;SDS011;1060;52.492;13.388;2023-05-07T14:13:01;4.23;;;2.13;;
2107;SDS011;1060;52.492;13.388;2023-05-07T14:15:27;1.73;;;1.63;;
2107;SDS011;1060;52.492;13.388;2023-05-07T14:18:00;3.10;;;1.63;;
2107;SDS011;1060;52.492;13.388;2023-05-07T14:20:36;1.60;;;1.50;;
2107;SDS011;1060;52.492;13.388;2023-05-07T14:23:03;5.37;;;2.47;;
2107;SDS011;1060;52.492;13.388;2023-05-07T14:25:37;4.23;;;3.83;;
2107;SDS011;1060;52.492;13.388;2023-05-07T14:28:08;2.60;;;2.40;;
2107;SDS011;1060;52.492;13.388;2023-05-07T14:30:44;2.30;;;1.50;;
2107;SDS011;1060;52.492;13.388;2023-05-07T14:33:22;1.60;;;1.50;;
2107;SDS011;1060;52.492;13.388;2023-05-07T14:35:52;2.37;;;2.17;;
2107;SDS011;1060;52.492;13.388;2023-05-07T14:38:22;2.80;;;2.50;;
2107;SDS011;1060;52.492;13.388;2023-05-07T14:40:49;9.30;;;4.60;;
2107;SDS011;1060;52.492;13.388;2023-05-07T14:43:28;3.00;;;2.77;;
2107;SDS011;1060;52.492;13.388;2023-05-07T14:45:54;2.20;;;2.00;;
2107;SDS011;1060;52.492;13.388;2023-05-07T14:48:21;3.30;;;2.70;;
2107;SDS011;1060;52.492;13.388;2023-05-07T14:50:51;2.10;;;1.97;;
2107;SDS011;1060;52.492;13.388;2023-05-07T14:53:17;6.10;;;3.60;;
2107;SDS011;1060;52.492;13.388;2023-05-07T14:56:01;3.30;;;1.80;;
2107;SDS011;1060;52.492;13.388;2023-05-07T14:59:00;2.03;;;1.60;;
2107;SDS011;1060;52.492;13.388;2023-05-07T15:01:31;4.20;;;1.73;;
2107;SDS011;1060;52.492;13.388;2023-05-07T15:04:10;2.47;;;2.20;;
2107;SDS011;1060;52.492;13.388;2023-05-07T15:06:40;3.33;;;2.07;;
2107;SDS011;1060;52.492;13.388;2023-05-07T15:09:21;6.83;;;2.40;;
2107;SDS011;1060;52.492;13.388;2023-05-07T15:11:59;4.30;;;3.77;;
2107;SDS011;1060;52.492;13.388;2023-05-07T15:14:32;3.13;;;2.93;;
2107;SDS011;1060;52.492;13.388;2023-05-07T15:17:08;2.97;;;2.67;;
2107;SDS011;1060;52.492;13.388;2023-05-07T15:20:01;3.23;;;2.93;;
2107;SDS011;1060;52.492;13.388;2023-05-07T15:25:42;4.20;;;3.40;;
2107;SDS011;1060;52.492;13.388;2023-05-07T15:28:42;2.60;;;2.00;;
2107;SDS011;1060;52.492;13.388;2023-05-07T15:31:04;1.70;;;1.30;;
2107;SDS011;1060;52.492;13.388;2023-05-07T15:33:36;1.80;;;1.67;;
2107;SDS011;1060;52.492;13.388;2023-05-07T15:36:34;3.23;;;2.10;;
2107;SDS011;1060;52.492;13.388;2023-05-07T15:39:11;4.07;;;3.17;;
2107;SDS011;1060;52.492;13.388;2023-05-07T15:41:51;2.63;;;2.43;;
2107;SDS011;1060;52.492;13.388;2023-05-07T15:44:20;4.63;;;2.77;;
2107;SDS011;1060;52.492;13.388;2023-05-07T15:46:49;2.00;;;1.80;;
2107;SDS011;1060;52.492;13.388;2023-05-07T15:49:19;2.13;;;2.03;;
2107;SDS011;1060;52.492;13.388;2023-05-07T15:51:47;3.47;;;2.53;;
2107;SDS011;1060;52.492;13.388;2023-05-07T15:54:29;2.90;;;2.60;;
2107;SDS011;1060;52.492;13.388;2023-05-07T15:57:09;2.33;;;2.13;;
2107;SDS011;1060;52.492;13.388;2023-05-07T15:59:47;3.40;;;3.10;;
2107;SDS011;1060;52.492;13.388;2023-05-07T16:02:33;5.10;;;2.90;;
2107;SDS011;1060;52.492;13.388;2023-05-07T16:05:08;5.83;;;5.20;;
2107;SDS011;1060;52.492;13.388;2023-05-07T16:07:36;3.07;;;2.83;;
2107;SDS011;1060;52.492;13.388;2023-05-07T16:10:24;5.43;;;3.50;;
2107;SDS011;1060;52.492;13.388;2023-05-07T16:13:31;2.83;;;2.20;;
2107;SDS011;1060;52.492;13.388;2023-05-07T16:16:24;2.00;;;1.90;;
2107;SDS011;1060;52.492;13.388;2023-05-07T16:18:59;3.17;;;2.67;;
2107;SDS011;1060;52.492;13.388;2023-05-07T16:21:54;5.00;;;2.40;;
2107;SDS011;1060;52.492;13.388;2023-05-07T16:24:27;3.40;;;2.50;;
2107;SDS011;1060;52.492;13.388;2023-05-07T16:27:41;3.53;;;3.23;;
2107;SDS011;1060;52.492;13.388;2023-05-07T16:30:18;2.80;;;2.60;;
2107;SDS011;1060;52.492;13.388;2023-05-07T16:32:53;2.83;;;2.50;;
2107;SDS011;1060;52.492;13.388;2023-05-07T16:35:40;2.27;;;2.10;;
2107;SDS011;1060;52.492;13.388;2023-05-07T16:38:17;3.50;;;3.20;;
2107;SDS011;1060;52.492;13.388;2023-05-07T16:41:00;5.33;;;4.83;;
2107;SDS011;1060;52.492;13.388;2023-05-07T16:43:51;4.10;;;3.70;;
2107;SDS011;1060;52.492;13.388;2023-05-07T16:46:21;5.00;;;3.30;;
2107;SDS011;1060;52.492;13.388;2023-05-07T16:49:00;2.40;;;2.20;;
2107;SDS011;1060;52.492;13.388;2023-05-07T16:51:30;2.37;;;1.93;;
2107;SDS011;1060;52.492;13.388;2023-05-07T16:54:00;3.97;;;2.03;;
2107;SDS011;1060;52.492;13.388;2023-05-07T16:56:30;2.13;;;1.93;;
2107;SDS011;1060;52.492;13.388;2023-05-07T16:58:57;2.73;;;2.53;;
2107;SDS011;1060;52.492;13.388;2023-05-07T17:01:23;4.80;;;2.20;;
2107;SDS011;1060;52.492;13.388;2023-05-07T17:04:00;1.90;;;1.57;;
2107;SDS011;1060;52.492;13.388;2023-05-07T17:06:28;2.90;;;2.70;;
2107;SDS011;1060;52.492;13.388;2023-05-07T17:08:56;2.43;;;2.20;;
2107;SDS011;1060;52.492;13.388;2023-05-07T17:11:34;2.03;;;1.83;;